Latest Weather Observations for Cowra

IDN60801

Issued at 5:52 am EST Sunday 22 September 2019 (issued every 10 minutes, with the page automatically refreshed every 10 minutes)

About weather observations | Map of weather stations | Latest weather observations for NSW | Other Formats
Station Details ID: 065111 Name: COWRA AIRPORT AWS Lat: -33.84 Lon: 148.65 Height: 300.4 m
Data from the previous 72 hours. | See also: Recent months at Cowra
Date/Time
EST
Temp
°C
App
Temp
°C
Dew
Point
°C
Rel
Hum
%
Delta-T
°C
Wind Press
QNH
hPa
Press
MSL
hPa
Rain since
9am
mm
Dir  Spd
km/h
Gust
km/h
Spd
kts
Gust
kts
22/05:30am 11.4 10.6 11.2 99 0.1 NNE 6 7 3 4 1022.2 1022.2 5.2
22/05:00am 11.7 12.2 11.5 99 0.1 CALM 0 0 0 0 1021.8 1021.8 5.2
22/04:30am 11.8 11.0 11.6 99 0.1 NNE 7 13 4 7 1021.3 1021.3 5.2
22/04:00am 11.9 12.4 11.7 99 0.1 CALM 0 0 0 0 1021.1 1021.1 4.8
22/03:30am 12.0 10.9 11.8 99 0.1 WNW 9 17 5 9 1021.1 1021.1 4.4
22/03:00am 12.1 12.7 11.9 99 0.1 CALM 0 0 0 0 1020.2 1020.3 3.8
22/02:30am 12.3 12.6 12.1 99 0.1 S 2 11 1 6 1020.8 1020.8 3.4
22/02:00am 12.4 13.0 11.9 97 0.3 CALM 0 0 0 0 1020.6 1020.6 3.2
22/01:30am 12.6 13.0 11.3 92 0.7 CALM 0 0 0 0 1020.5 1020.5 3.0
22/01:00am 12.5 12.5 11.1 91 0.7 S 2 6 1 3 1020.0 1020.1 2.4
22/12:30am 12.8 11.8 10.9 88 1.0 WSW 7 9 4 5 1021.1 1021.1 2.4
22/12:00am 13.4 10.8 10.8 84 1.4 SW 15 17 8 9 1020.5 1020.5 2.0
 
Date/Time
EST
Temp
°C
App
Temp
°C
Dew
Point
°C
Rel
Hum
%
Delta-T
°C
Wind Press
QNH
hPa
Press
MSL
hPa
Rain since
9am
mm
Dir  Spd
km/h
Gust
km/h
Spd
kts
Gust
kts
21/11:30pm 14.7 12.8 10.5 76 2.2 SW 11 19 6 10 1020.2 1020.3 1.8
21/11:00pm 15.5 14.2 11.3 76 2.3 SSW 9 13 5 7 1020.0 1020.1 1.6
21/10:30pm 16.1 14.6 10.6 70 3.0 SE 9 11 5 6 1019.3 1019.3 1.6
21/10:00pm 16.8 15.2 10.2 65 3.5 S 9 15 5 8 1019.0 1019.0 1.6
21/09:30pm 16.7 16.8 10.3 66 3.4 CALM 0 7 0 4 1019.1 1019.1 1.6
21/09:00pm 16.9 16.3 10.3 65 3.5 WSW 4 9 2 5 1018.7 1018.7 1.6
21/08:30pm 18.0 15.3 10.4 61 4.1 SW 15 20 8 11 1018.6 1018.6 1.6
21/08:00pm 19.6 17.3 10.6 56 4.9 NW 13 20 7 11 1018.2 1018.2 1.6
21/07:30pm 19.4 16.1 10.9 58 4.7 NNW 19 24 10 13 1017.6 1017.6 1.6
21/07:00pm 20.1 15.4 10.5 54 5.3 N 26 35 14 19 1017.2 1017.2 1.6
21/06:30pm 20.6 15.1 10.7 53 5.5 N 30 43 16 23 1016.6 1016.6 1.6
21/06:00pm 20.7 15.7 11.1 54 5.3 N 28 39 15 21 1016.3 1016.3 1.6
21/05:30pm 20.5 16.4 11.4 56 5.1 N 24 35 13 19 1015.9 1015.9 1.6
21/05:00pm 20.7 16.8 12.1 58 4.9 N 24 33 13 18 1016.0 1016.0 1.6
21/04:30pm 20.9 16.2 12.1 57 5.0 N 28 48 15 26 1016.2 1016.2 1.6
21/04:00pm 20.4 17.0 12.4 60 4.6 N 22 35 12 19 1016.3 1016.3 1.6
21/03:30pm 20.7 15.3 12.1 58 4.9 N 32 46 17 25 1016.4 1016.4 1.6
21/03:14pm 20.7 16.4 13.2 62 4.3 N 28 46 15 25 1016.5 1016.5 1.6
21/03:00pm 20.2 15.9 13.2 64 4.0 N 28 43 15 23 1016.3 1016.3 1.6
21/02:41pm 20.1 15.0 13.1 64 4.0 N 32 50 17 27 1016.5 1016.5 1.6
21/02:30pm 19.0 14.2 13.0 68 3.4 N 30 39 16 21 1016.0 1016.0 1.6
21/02:14pm 18.6 13.5 13.0 70 3.2 N 32 50 17 27 1016.6 1016.6 1.2
21/02:00pm 18.4 14.1 13.1 71 3.0 N 28 43 15 23 1016.8 1016.8 1.2
21/01:30pm 18.4 15.8 13.7 74 2.7 N 20 32 11 17 1018.3 1018.3 1.2
21/01:00pm 17.5 15.5 14.0 80 2.0 N 17 24 9 13 1018.4 1018.4 1.0
21/12:30pm 18.2 13.8 12.9 71 3.0 NNW 28 44 15 24 1019.2 1019.2 0.6
21/12:00pm 20.5 14.2 10.9 54 5.3 NW 35 59 19 32 1018.9 1018.9 0.0
21/11:30am 23.2 16.9 8.9 40 7.8 N 32 50 17 27 1018.0 1018.0 0.0
21/11:28am 23.3 17.0 9.0 40 7.8 N 32 50 17 27 1018.0 1018.0 0.0
21/11:00am 24.0 15.7 9.2 39 8.1 N 43 57 23 31 1018.2 1018.2 0.0
21/10:42am 23.9 15.4 8.7 38 8.3 N 43 61 23 33 1018.1 1018.1 0.0
21/10:30am 23.3 15.3 9.0 40 7.8 N 41 57 22 31 1018.3 1018.3 0.0
21/10:00am 23.6 15.3 9.9 42 7.6 N 44 65 24 35 1018.2 1018.2 0.0
21/09:39am 21.4 13.2 9.6 47 6.4 N 43 65 23 35 1018.4 1018.4 0.0
21/09:30am 21.3 13.8 9.5 47 6.4 N 39 56 21 30 1018.6 1018.6 0.0
21/09:00am 21.0 13.2 9.6 48 6.2 N 41 59 22 32 1018.6 1018.6 0.0
21/08:53am 20.9 13.1 9.8 49 6.1 N 41 59 22 32 1018.6 1018.6 0.0
21/08:30am 21.0 14.0 9.9 49 6.1 N 37 52 20 28 1018.6 1018.6 0.0
21/08:21am 20.9 14.6 9.8 49 6.1 N 33 52 18 28 1018.8 1018.8 0.0
21/08:00am 20.5 15.2 9.7 50 5.9 N 28 41 15 22 1018.8 1018.8 0.0
21/07:30am 20.3 14.5 9.5 50 5.8 N 30 44 16 24 1018.9 1018.9 0.0
21/07:00am 20.3 14.8 9.2 49 6.0 N 28 39 15 21 1018.6 1018.6 0.0
21/06:30am 20.1 14.9 8.8 48 6.0 N 26 35 14 19 1018.2 1018.2 0.0
21/06:00am 20.3 15.4 8.6 47 6.2 N 24 35 13 19 1017.8 1017.8 0.0
21/05:30am 20.4 15.2 8.7 47 6.2 N 26 37 14 20 1017.4 1017.4 0.0
21/05:00am 20.4 15.6 8.7 47 6.2 N 24 35 13 19 1017.4 1017.4 0.0
21/04:30am 16.0 15.4 10.3 69 3.1 NNW 4 9 2 5 1017.3 1017.3 0.0
21/04:00am 16.8 15.1 9.7 63 3.8 N 9 13 5 7 1017.0 1016.9 0.0
21/03:30am 18.4 16.3 11.0 62 4.1 NNE 13 19 7 10 1016.7 1016.7 0.0
21/03:00am 18.2 16.4 11.0 63 3.9 NNE 11 17 6 9 1017.0 1016.9 0.0
21/02:30am 18.8 16.0 11.4 62 4.1 NNE 17 28 9 15 1017.3 1017.3 0.0
21/02:00am 18.6 16.6 11.4 63 4.0 NNE 13 22 7 12 1017.6 1017.6 0.0
21/01:30am 18.6 17.0 11.4 63 4.0 N 11 17 6 9 1018.0 1018.0 0.0
21/01:00am 18.3 17.0 11.1 63 4.0 NNE 9 15 5 8 1018.3 1018.3 0.0
21/12:30am 18.5 17.2 11.3 63 4.0 N 9 19 5 10 1018.4 1018.4 0.0
21/12:00am 18.9 18.0 11.5 62 4.1 NNE 7 13 4 7 1018.7 1018.7 0.0
 
Date/Time
EST
Temp
°C
App
Temp
°C
Dew
Point
°C
Rel
Hum
%
Delta-T
°C
Wind Press
QNH
hPa
Press
MSL
hPa
Rain since
9am
mm
Dir  Spd
km/h
Gust
km/h
Spd
kts
Gust
kts
20/11:30pm 18.6 17.8 10.9 61 4.2 NNE 6 15 3 8 1019.0 1019.0 0.0
20/11:00pm 19.2 15.9 11.0 59 4.5 NE 19 32 10 17 1019.0 1019.0 0.0
20/10:30pm 19.6 15.4 11.1 58 4.7 NE 24 39 13 21 1018.7 1018.7 0.0
20/10:22pm 19.6 14.6 11.1 58 4.7 NE 28 46 15 25 1018.7 1018.7 0.0
20/10:00pm 19.6 15.0 10.9 57 4.8 NE 26 41 14 22 1018.9 1018.9 0.0
20/09:30pm 20.0 15.7 10.7 55 5.1 NE 24 41 13 22 1018.9 1018.9 0.0
20/09:00pm 20.5 16.2 10.6 53 5.5 NE 24 37 13 20 1018.9 1018.9 0.0
20/08:30pm 20.7 16.8 9.6 49 6.0 NE 20 33 11 18 1018.8 1018.8 0.0
20/08:00pm 21.1 17.2 7.3 41 7.2 ENE 17 24 9 13 1018.7 1018.7 0.0
20/07:30pm 21.5 17.6 7.3 40 7.4 NE 17 24 9 13 1018.4 1018.4 0.0
20/07:00pm 21.7 18.6 7.2 39 7.6 NE 13 22 7 12 1018.3 1018.3 0.0
20/06:30pm 22.4 19.5 6.6 36 8.2 NE 11 17 6 9 1018.3 1018.3 0.0
20/06:00pm 23.0 19.8 6.7 35 8.5 NE 13 17 7 9 1018.3 1018.3 0.0
20/05:30pm 24.4 19.7 6.2 31 9.5 NNE 20 32 11 17 1018.3 1018.3 0.0
20/05:00pm 25.1 20.0 5.8 29 10.0 NNE 22 33 12 18 1018.3 1018.3 0.0
20/04:30pm 25.8 19.3 4.9 26 10.7 N 28 35 15 19 1018.1 1018.1 0.0
20/04:00pm 26.4 20.3 4.8 25 11.1 N 26 41 14 22 1018.1 1018.1 0.0
20/03:52pm 26.4 19.9 4.8 25 11.1 N 28 46 15 25 1018.2 1018.2 0.0
20/03:30pm 26.5 20.6 6.0 27 10.8 N 26 35 14 19 1018.3 1018.3 0.0
20/03:00pm 26.5 20.3 6.0 27 10.8 N 28 37 15 20 1018.5 1018.5 0.0
20/02:30pm 26.6 21.4 7.1 29 10.5 N 24 35 13 19 1019.0 1019.0 0.0
20/02:00pm 25.6 19.9 6.8 30 9.9 N 26 39 14 21 1019.5 1019.5 0.0
20/01:30pm 25.9 19.9 7.0 30 10.1 N 28 35 15 19 1020.1 1020.2 0.0
20/01:00pm 26.0 20.9 7.6 31 9.9 NNE 24 37 13 20 1020.7 1020.7 0.0
20/12:30pm 26.4 20.8 8.8 33 9.7 N 28 37 15 20 1021.1 1021.1 0.0
20/12:00pm 25.3 20.0 8.3 34 9.2 N 26 35 14 19 1021.6 1021.6 0.0
20/11:30am 25.4 20.7 9.3 36 8.9 N 24 37 13 20 1022.1 1022.1 0.0
20/11:00am 23.8 18.9 8.6 38 8.2 NNW 24 33 13 18 1022.7 1022.8 0.0
20/10:30am 22.4 20.5 10.5 47 6.6 NW 11 20 6 11 1023.2 1023.3 0.0
20/10:00am 22.1 18.4 9.6 45 6.8 N 19 30 10 16 1023.4 1023.5 0.0
20/09:30am 21.4 18.6 9.9 48 6.3 NNE 15 26 8 14 1024.0 1024.0 0.0
20/09:00am 19.4 17.6 10.7 57 4.8 E 11 19 6 10 1024.2 1024.2 0.0
20/08:30am 18.2 15.8 10.1 59 4.4 E 13 19 7 10 1024.4 1024.4 0.0
20/08:00am 16.6 15.7 10.7 68 3.2 SE 6 11 3 6 1024.7 1024.7 0.0
20/07:30am 15.0 14.8 11.8 81 1.8 SE 4 9 2 5 1024.6 1024.6 0.0
20/07:00am 10.8 10.6 9.1 89 0.9 CALM 0 0 0 0 1024.6 1024.6 0.0
20/06:30am 10.3 9.6 8.4 88 0.9 SSE 2 6 1 3 1024.2 1024.2 0.0
20/06:00am 10.8 9.4 8.7 87 1.0 ESE 6 7 3 4 1024.1 1024.1 0.0
20/05:30am 11.2 9.4 8.1 81 1.5 E 7 11 4 6 1023.8 1023.9 0.0
20/05:00am 12.8 11.4 9.4 80 1.7 ENE 7 11 4 6 1023.5 1023.6 0.0
20/04:30am 10.6 10.0 8.9 89 0.9 ESE 2 9 1 5 1023.3 1023.4 0.0
20/04:00am 11.1 10.7 9.9 92 0.6 ESE 2 9 1 5 1023.2 1023.3 0.0
20/03:30am 9.6 7.3 5.6 76 1.9 ESE 7 11 4 6 1023.1 1023.2 0.0
20/03:00am 12.2 11.0 9.4 83 1.4 SSE 6 7 3 4 1023.3 1023.4 0.0
20/02:30am 12.0 10.0 8.8 81 1.6 S 9 11 5 6 1023.6 1023.7 0.0
20/02:00am 12.3 11.3 10.4 88 1.0 S 6 13 3 7 1023.7 1023.8 0.0
20/01:30am 11.0 9.4 7.9 81 1.5 S 6 9 3 5 1023.8 1023.9 0.0
20/01:00am 13.1 11.8 10.1 82 1.6 ESE 7 9 4 5 1023.8 1023.9 0.0
20/12:30am 13.2 11.9 9.8 80 1.8 S 7 9 4 5 1024.0 1024.0 0.0
20/12:00am 12.0 10.1 7.5 74 2.2 SSW 7 11 4 6 1024.1 1024.1 0.0
 
Date/Time
EST
Temp
°C
App
Temp
°C
Dew
Point
°C
Rel
Hum
%
Delta-T
°C
Wind Press
QNH
hPa
Press
MSL
hPa
Rain since
9am
mm
Dir  Spd
km/h
Gust
km/h
Spd
kts
Gust
kts
19/11:30pm 14.6 13.2 9.4 71 2.7 S 7 11 4 6 1024.0 1024.0 0.0
19/11:00pm 15.4 13.7 10.0 70 2.9 SSE 9 13 5 7 1024.1 1024.1 0.0
19/10:30pm 15.7 14.0 9.8 68 3.1 S 9 11 5 6 1024.1 1024.1 0.0
19/10:00pm 15.7 14.4 9.8 68 3.1 SSE 7 15 4 8 1024.0 1024.0 0.0
19/09:30pm 16.8 15.0 9.5 62 3.9 E 9 15 5 8 1023.6 1023.7 0.0
19/09:00pm 16.7 14.8 9.1 61 4.0 ENE 9 13 5 7 1023.3 1023.4 0.0
19/08:30pm 17.1 14.4 8.8 58 4.3 E 13 17 7 9 1023.0 1023.1 0.0
19/08:00pm 17.9 15.1 8.7 55 4.8 E 13 17 7 9 1022.7 1022.8 0.0
19/07:30pm 18.3 15.5 8.6 53 5.1 E 13 15 7 8 1022.4 1022.4 0.0
19/07:00pm 18.7 16.6 8.1 50 5.5 ENE 9 11 5 6 1022.3 1022.3 0.0
19/06:30pm 19.6 17.4 8.0 47 6.1 ENE 9 13 5 7 1022.1 1022.1 0.0
19/06:00pm 20.9 18.7 7.9 43 6.8 NE 9 13 5 7 1022.0 1022.0 0.0
19/05:30pm 22.1 19.5 7.9 40 7.5 NE 11 17 6 9 1021.7 1021.7 0.0
19/05:00pm 23.0 19.9 7.1 36 8.3 NNE 13 17 7 9 1021.5 1021.5 0.0
19/04:30pm 23.5 21.7 8.0 37 8.3 NE 7 13 4 7 1021.4 1021.4 0.0
19/04:00pm 23.6 21.6 8.5 38 8.1 NE 9 15 5 8 1021.2 1021.2 0.0
19/03:30pm 22.8 20.6 9.2 42 7.4 NE 11 17 6 9 1021.5 1021.5 0.0
19/03:00pm 23.4 21.1 9.0 40 7.8 NE 11 17 6 9 1021.7 1021.7 0.0
19/02:30pm 22.3 21.0 9.1 43 7.2 NNE 6 11 3 6 1022.0 1022.0 0.0
19/02:00pm 22.3 21.0 10.1 46 6.7 E 7 13 4 7 1022.3 1022.3 0.0
19/01:30pm 22.2 21.0 9.7 45 6.9 NNW 6 13 3 7 1022.5 1022.5 0.0
19/01:00pm 21.8 19.7 9.7 46 6.6 NNE 11 17 6 9 1022.7 1022.8 0.0
19/12:30pm 21.4 19.3 9.9 48 6.3 NW 11 19 6 10 1023.0 1023.1 0.0
19/12:00pm 22.3 21.4 10.5 47 6.5 WSW 6 15 3 8 1023.4 1023.5 0.0
19/11:30am 20.8 19.8 10.3 51 5.8 NW 6 9 3 5 1023.8 1023.9 0.0
19/11:00am 20.5 19.6 11.2 55 5.2 SSE 7 17 4 9 1024.3 1024.3 0.0
19/10:30am 19.5 18.4 10.5 56 4.9 E 7 13 4 7 1024.8 1024.8 0.0
19/10:00am 18.4 17.0 10.8 61 4.1 SSE 9 15 5 8 1025.2 1025.2 0.0
19/09:30am 17.2 14.4 10.1 63 3.8 SE 15 19 8 10 1025.4 1025.4 0.0
19/09:00am 16.2 13.9 10.5 69 3.1 SE 13 17 7 9 1025.5 1025.6 0.0
19/08:30am 14.6 11.5 10.2 75 2.3 SE 17 24 9 13 1025.6 1025.7 0.0
19/08:00am 13.0 10.5 9.6 80 1.8 ESE 13 20 7 11 1025.7 1025.8 0.0
19/07:30am 11.2 8.5 8.9 86 1.2 SE 13 19 7 10 1025.9 1026.0 0.0
19/07:00am 9.9 7.5 8.5 91 0.7 SE 11 15 6 8 1025.9 1026.0 0.0
19/06:30am 8.6 7.1 8.5 99 0.0 SE 6 11 3 6 1026.0 1026.1 0.0
19/06:00am 8.3 6.1 8.0 98 0.1 SE 9 13 5 7 1025.8 1025.9 0.0

Other formats

Comma delimited format used in spreadsheet applications
http://www.bom.gov.au/fwo/IDN60801/IDN60801.95721.axf

JavaScript Object Notation format (JSON) in row-major order
http://www.bom.gov.au/fwo/IDN60801/IDN60801.95721.json

Data quality

Most of these data are generated automatically and are frequently updated. Quality checks on data are not normally performed. It is possible for incorrect values to appear. Refer to information at About Latest Weather Observations and please check the disclaimer before using these data.